Hamilton, New Zealand
Current Conditions -  °F | °C
As of 9:30 PM on Sunday 21 Dec 2014 (Local Time) from NZAA Reporting Station
Broken Clouds Broken Clouds  
Wind Chill: 64°   Ceiling: 4900
Heat Index: 64°   Visibility: 6mi
Dew Point: 59°   Wind: 10mph
Humidity: 83%   Direction: 240°WSW
Pressure: 30.03"   Gusts: NA
Location:  37.79°S, 175.28°E
Report Text: NZAA 210930Z AUTO 24009KT 9999 FEW018/// BKN049/// BKN055///18/15 Q1017 TEMPO BKN014
Loading
Personal Weather Stations






























Interactive Weather Map New forecast layout! Learn more

10-Day Weather Forecast

Advertisements
Track Severe Weather on mobile